Kunyang, China
Current Conditions -  °F | °C
As of 10:00 AM on Saturday 25 Oct 2014 (Local Time) from ZPPP Reporting Station
Scattered Clouds Scattered Clouds  
Wind Chill: 57°   Ceiling: Unl
Heat Index: 57°   Visibility: 6mi
Dew Point: 54°   Wind: 11mph
Humidity: 88%   Direction: 210°SSW
Pressure: 30.36"   Gusts: NA
Location:  24.67°N, 102.59°E
Report Text: ZPPP 250200Z 21005MPS 9999 SCT023 14/12 Q1028 NOSIG
Loading
Personal Weather Stations






























Interactive Weather Map
Tropical Storm Tracking
New forecast layout! Learn more

10-Day Weather Forecast

Advertisements
Track Severe Weather on mobile